createdAt,value
2018-03-07T00:00:41.917Z,76.52
2018-03-07T00:03:10.352Z,76.79
2018-03-07T00:05:38.841Z,76.89
2018-03-07T00:08:07.324Z,76.82
2018-03-07T00:10:35.770Z,77.06
2018-03-07T00:13:04.269Z,77.18
2018-03-07T00:15:33.019Z,77.16
2018-03-07T00:18:01.471Z,77.31
2018-03-07T00:20:29.981Z,77.30
2018-03-07T00:22:58.453Z,77.17
2018-03-07T00:25:26.879Z,77.40
2018-03-07T00:27:55.372Z,77.12
2018-03-07T00:30:23.822Z,77.29
2018-03-07T00:32:52.273Z,77.37
2018-03-07T00:35:20.757Z,77.44
2018-03-07T00:37:49.214Z,77.28
2018-03-07T00:40:17.666Z,77.01
2018-03-07T00:42:46.145Z,77.22
2018-03-07T00:45:14.612Z,77.15
2018-03-07T00:47:43.032Z,77.23
2018-03-07T00:50:11.506Z,77.45
2018-03-07T00:52:39.991Z,77.26
2018-03-07T00:55:08.442Z,77.12
2018-03-07T00:57:36.923Z,77.07
2018-03-07T01:00:05.422Z,77.22
2018-03-07T01:02:33.879Z,77.08
2018-03-07T01:05:02.367Z,77.10
2018-03-07T01:07:30.802Z,77.16
2018-03-07T01:09:59.244Z,76.95
2018-03-07T01:12:27.721Z,77.22
2018-03-07T01:14:56.183Z,77.11
2018-03-07T01:17:24.636Z,77.21
2018-03-07T01:19:53.135Z,77.38
2018-03-07T01:22:21.738Z,77.54
2018-03-07T01:24:50.171Z,77.48
2018-03-07T01:27:18.646Z,77.47
2018-03-07T01:29:47.076Z,77.61
2018-03-07T01:32:15.509Z,77.90
2018-03-07T01:34:44.005Z,77.65
2018-03-07T01:37:12.440Z,77.46
2018-03-07T01:39:40.878Z,77.86
2018-03-07T01:42:09.367Z,77.71
2018-03-07T01:44:37.803Z,78.15
2018-03-07T01:47:06.240Z,77.84
2018-03-07T01:49:34.718Z,78.10
2018-03-07T01:52:03.146Z,77.90
2018-03-07T01:54:31.598Z,77.96
2018-03-07T01:57:00.073Z,78.01
2018-03-07T01:59:28.536Z,78.03
2018-03-07T02:01:56.991Z,78.11
2018-03-07T02:04:25.483Z,78.08
2018-03-07T02:06:53.932Z,78.00
2018-03-07T02:09:22.376Z,78.13
2018-03-07T02:11:50.851Z,78.08
2018-03-07T02:14:19.287Z,77.89
2018-03-07T02:16:47.754Z,78.02
2018-03-07T02:19:16.244Z,78.05
2018-03-07T02:21:44.705Z,77.80
2018-03-07T02:24:13.164Z,77.79
2018-03-07T02:26:41.650Z,78.04
2018-03-07T02:29:10.111Z,78.26
2018-03-07T02:31:38.572Z,78.22
2018-03-07T02:34:07.053Z,78.12
2018-03-07T02:36:35.553Z,77.79
2018-03-07T02:39:04.064Z,78.04
2018-03-07T02:41:32.568Z,78.39
2018-03-07T02:44:01.034Z,78.26
2018-03-07T02:46:29.491Z,78.21
2018-03-07T02:48:57.994Z,77.97
2018-03-07T02:51:26.418Z,77.98
2018-03-07T02:53:54.909Z,77.64
2018-03-07T02:56:23.383Z,77.79
2018-03-07T02:58:51.827Z,77.64
2018-03-07T03:01:20.262Z,77.84
2018-03-07T03:03:48.769Z,77.88
2018-03-07T03:06:17.192Z,77.87
2018-03-07T03:08:45.618Z,78.04
2018-03-07T03:11:14.131Z,78.32
2018-03-07T03:13:42.581Z,77.93
2018-03-07T03:16:11.011Z,77.94
2018-03-07T03:18:39.513Z,77.91
2018-03-07T03:21:07.950Z,78.53
2018-03-07T03:23:36.401Z,78.57
2018-03-07T03:26:04.918Z,79.10
2018-03-07T03:28:33.372Z,79.37
2018-03-07T03:31:01.838Z,79.61
2018-03-07T03:33:30.314Z,79.84
2018-03-07T03:35:58.785Z,80.10
2018-03-07T03:38:27.225Z,79.90
2018-03-07T03:40:55.705Z,79.96
2018-03-07T03:43:24.146Z,80.17
2018-03-07T03:45:52.594Z,79.91
2018-03-07T03:48:21.069Z,79.74
2018-03-07T03:50:49.529Z,79.77
2018-03-07T03:53:17.993Z,79.66
2018-03-07T03:55:46.499Z,80.01
2018-03-07T03:58:14.938Z,79.68
2018-03-07T04:00:43.404Z,79.70
2018-03-07T04:03:11.895Z,79.87
2018-03-07T04:05:40.349Z,79.79
2018-03-07T04:08:08.799Z,80.21
2018-03-07T04:10:37.288Z,79.96
2018-03-07T04:13:05.735Z,79.74
2018-03-07T04:15:34.450Z,79.77
2018-03-07T04:18:02.949Z,79.82
2018-03-07T04:20:31.407Z,79.65
2018-03-07T04:22:59.862Z,79.65
2018-03-07T04:25:28.361Z,79.50
2018-03-07T04:27:57.043Z,79.28
2018-03-07T04:30:25.500Z,79.65
2018-03-07T04:32:54.106Z,79.37
2018-03-07T04:35:22.553Z,79.13
2018-03-07T04:37:51.006Z,79.17
2018-03-07T04:40:19.489Z,79.10
2018-03-07T04:42:48.026Z,79.30
2018-03-07T04:45:16.481Z,79.11
2018-03-07T04:47:44.978Z,78.99
2018-03-07T04:50:13.426Z,79.25
2018-03-07T04:52:41.880Z,78.95
2018-03-07T04:55:10.371Z,79.12
2018-03-07T04:57:38.806Z,79.18
2018-03-07T05:00:07.250Z,79.39
2018-03-07T05:02:35.852Z,79.20
2018-03-07T05:05:04.361Z,79.01
2018-03-07T05:07:32.821Z,79.42
2018-03-07T05:10:01.636Z,79.29
2018-03-07T05:12:30.056Z,79.19
2018-03-07T05:14:58.497Z,79.05
2018-03-07T05:17:26.961Z,79.59
2018-03-07T05:19:55.390Z,79.78
2018-03-07T05:22:23.836Z,80.03
2018-03-07T05:24:52.310Z,79.84
2018-03-07T05:27:20.761Z,80.01
2018-03-07T05:29:49.205Z,80.11
2018-03-07T05:32:17.713Z,79.80
2018-03-07T05:34:46.159Z,79.91
2018-03-07T05:37:14.601Z,79.86
2018-03-07T05:39:43.102Z,79.66
2018-03-07T05:42:11.526Z,79.44
2018-03-07T05:44:39.959Z,79.57
2018-03-07T05:47:08.468Z,79.42
2018-03-07T05:49:36.895Z,79.46
2018-03-07T05:52:05.343Z,79.47
2018-03-07T05:54:33.811Z,79.39
2018-03-07T05:57:02.245Z,79.34
2018-03-07T05:59:30.679Z,79.62
2018-03-07T06:01:59.149Z,80.00
2018-03-07T06:04:27.594Z,79.62
2018-03-07T06:06:56.081Z,79.47
2018-03-07T06:09:24.874Z,79.54
2018-03-07T06:11:53.339Z,79.43
2018-03-07T06:14:21.777Z,79.71
2018-03-07T06:16:50.298Z,80.49
2018-03-07T06:19:19.031Z,80.16
2018-03-07T06:21:47.494Z,80.24
2018-03-07T06:24:15.970Z,80.08
2018-03-07T06:26:44.403Z,80.10
2018-03-07T06:29:12.843Z,79.86
2018-03-07T06:31:41.322Z,80.12
2018-03-07T06:34:09.818Z,79.86
2018-03-07T06:36:38.290Z,79.78
2018-03-07T06:39:06.795Z,79.75
2018-03-07T06:41:35.226Z,80.21
2018-03-07T06:44:03.688Z,80.25
2018-03-07T06:46:32.171Z,80.25
2018-03-07T06:49:00.597Z,80.31
2018-03-07T06:51:29.053Z,80.12
2018-03-07T06:53:57.533Z,80.14
2018-03-07T06:56:25.964Z,79.99
2018-03-07T06:58:54.398Z,80.17
2018-03-07T07:01:22.874Z,79.98
2018-03-07T07:03:51.302Z,79.73
2018-03-07T07:06:19.748Z,80.15
2018-03-07T07:08:48.230Z,79.61
2018-03-07T07:11:16.674Z,80.10
2018-03-07T07:13:45.136Z,79.08
2018-03-07T07:16:13.652Z,78.66
2018-03-07T07:18:42.087Z,79.46
2018-03-07T07:21:10.535Z,79.69
2018-03-07T07:23:39.039Z,79.64
2018-03-07T07:26:07.481Z,79.67
2018-03-07T07:28:35.908Z,79.85
2018-03-07T07:31:04.380Z,79.76
2018-03-07T07:33:32.825Z,79.87
2018-03-07T07:36:01.257Z,79.69
2018-03-07T07:38:29.717Z,78.68
2018-03-07T07:40:58.162Z,78.96
2018-03-07T07:43:26.619Z,78.85
2018-03-07T07:45:55.100Z,78.91
2018-03-07T07:48:23.514Z,79.09
2018-03-07T07:50:51.970Z,79.30
2018-03-07T07:53:20.450Z,78.78
2018-03-07T07:55:48.893Z,78.76
2018-03-07T07:58:17.338Z,78.50
2018-03-07T08:00:45.848Z,78.72
2018-03-07T08:03:14.304Z,78.67
2018-03-07T08:05:42.750Z,78.92
2018-03-07T08:08:11.260Z,78.76
2018-03-07T08:10:39.706Z,78.52
2018-03-07T08:13:08.154Z,78.69
2018-03-07T08:15:36.637Z,77.69
2018-03-07T08:18:05.091Z,77.69
2018-03-07T08:20:33.556Z,77.90
2018-03-07T08:23:02.064Z,77.98
2018-03-07T08:25:30.525Z,77.82
2018-03-07T08:27:58.977Z,78.03
2018-03-07T08:30:27.465Z,78.20
2018-03-07T08:32:55.931Z,100.00
2018-03-07T08:35:24.440Z,77.51
2018-03-07T08:37:52.947Z,100.00
2018-03-07T08:40:21.416Z,77.35
2018-03-07T08:42:49.850Z,77.12
2018-03-07T08:45:18.339Z,100.00
2018-03-07T08:47:46.819Z,100.00
2018-03-07T08:50:15.297Z,100.00
2018-03-07T08:52:43.783Z,77.28
2018-03-07T08:55:12.221Z,77.18
2018-03-07T08:57:40.695Z,100.00
2018-03-07T09:00:09.251Z,100.00
2018-03-07T09:02:37.715Z,100.00
2018-03-07T09:05:06.190Z,100.00
2018-03-07T09:07:34.737Z,100.00
2018-03-07T09:10:03.221Z,100.00
2018-03-07T09:12:31.702Z,100.00
2018-03-07T09:15:00.208Z,57.16
2018-03-07T09:17:28.670Z,75.87
2018-03-07T09:19:57.144Z,100.00
2018-03-07T09:22:25.700Z,100.00
2018-03-07T09:24:54.173Z,100.00
2018-03-07T09:27:22.643Z,100.00
2018-03-07T09:29:51.167Z,73.21
2018-03-07T09:32:19.650Z,100.00
2018-03-07T09:34:48.130Z,100.00
2018-03-07T09:37:16.622Z,72.56
2018-03-07T09:39:45.065Z,71.96
2018-03-07T09:42:13.537Z,100.00
2018-03-07T09:44:42.040Z,70.59
2018-03-07T09:47:10.570Z,100.00
2018-03-07T09:49:39.057Z,100.00
2018-03-07T09:52:07.579Z,100.00
2018-03-07T09:54:36.071Z,100.00
2018-03-07T09:57:04.513Z,69.98
2018-03-07T09:59:33.070Z,100.00
2018-03-07T10:02:01.570Z,100.00
2018-03-07T10:04:30.053Z,100.00
2018-03-07T10:06:58.585Z,100.00
2018-03-07T10:09:27.069Z,100.00
2018-03-07T10:11:55.537Z,100.00
2018-03-07T10:14:24.065Z,100.00
2018-03-07T10:16:52.575Z,100.00
2018-03-07T10:19:21.051Z,64.46
2018-03-07T10:21:49.555Z,64.43
2018-03-07T10:24:18.027Z,100.00
2018-03-07T10:26:46.495Z,100.00
2018-03-07T10:29:14.998Z,65.42
2018-03-07T10:31:43.449Z,64.94
2018-03-07T10:34:11.880Z,65.14
2018-03-07T10:36:40.399Z,100.00
2018-03-07T10:39:08.884Z,100.00
2018-03-07T10:41:37.350Z,64.51
2018-03-07T10:44:05.834Z,63.99
2018-03-07T10:46:34.292Z,64.83
2018-03-07T10:49:02.727Z,63.61
2018-03-07T10:51:31.222Z,63.67
2018-03-07T10:53:59.668Z,64.30
2018-03-07T10:56:28.117Z,64.81
2018-03-07T10:58:56.611Z,64.82
2018-03-07T11:01:25.064Z,65.57
2018-03-07T11:03:53.495Z,64.75
2018-03-07T11:06:22.000Z,65.15
2018-03-07T11:08:50.485Z,64.71
2018-03-07T11:11:18.945Z,65.11
2018-03-07T11:13:47.457Z,64.61
2018-03-07T11:16:15.934Z,63.43
2018-03-07T11:18:44.379Z,64.00
2018-03-07T11:21:12.846Z,63.96
2018-03-07T11:23:41.286Z,64.42
2018-03-07T11:26:09.739Z,64.63
2018-03-07T11:28:38.204Z,64.65
2018-03-07T11:31:06.648Z,64.67
2018-03-07T11:33:35.095Z,64.59
2018-03-07T11:36:03.624Z,64.49
2018-03-07T11:38:32.057Z,64.70
2018-03-07T11:41:00.504Z,63.90
2018-03-07T11:43:29.039Z,64.37
2018-03-07T11:45:57.481Z,63.75
2018-03-07T11:48:25.914Z,64.31
2018-03-07T11:50:54.408Z,64.30
2018-03-07T11:53:22.869Z,64.78
2018-03-07T11:55:51.308Z,65.79
2018-03-07T11:58:19.778Z,65.94
2018-03-07T12:00:48.207Z,65.90
2018-03-07T12:03:16.646Z,66.07
2018-03-07T12:05:45.132Z,66.43
2018-03-07T12:08:13.577Z,66.74
2018-03-07T12:10:42.037Z,67.25
2018-03-07T12:13:10.536Z,66.89
2018-03-07T12:15:38.970Z,67.12
2018-03-07T12:18:07.430Z,67.06
2018-03-07T12:20:35.911Z,67.22
2018-03-07T12:23:04.388Z,67.29
2018-03-07T12:25:32.871Z,67.67
2018-03-07T12:28:01.354Z,67.33
2018-03-07T12:30:29.810Z,67.07
2018-03-07T12:32:58.269Z,67.44
2018-03-07T12:35:26.743Z,67.44
2018-03-07T12:37:55.170Z,67.95
2018-03-07T12:40:23.614Z,67.99
2018-03-07T12:42:52.111Z,67.86
2018-03-07T12:45:20.562Z,67.80
2018-03-07T12:47:48.998Z,67.66
2018-03-07T12:50:17.485Z,68.07
2018-03-07T12:52:45.942Z,67.76
2018-03-07T12:55:14.386Z,68.05
2018-03-07T12:57:42.888Z,68.03
2018-03-07T13:00:11.365Z,68.40
2018-03-07T13:02:39.827Z,68.43
2018-03-07T13:05:08.324Z,68.52
2018-03-07T13:07:36.758Z,69.33
2018-03-07T13:10:05.194Z,69.11
2018-03-07T13:12:33.722Z,68.60
2018-03-07T13:15:02.174Z,68.62
2018-03-07T13:17:30.618Z,69.11
2018-03-07T13:19:59.107Z,68.88
2018-03-07T13:22:27.557Z,69.27
2018-03-07T13:24:55.988Z,68.37
2018-03-07T13:27:24.463Z,68.42
2018-03-07T13:29:52.910Z,68.34
2018-03-07T13:32:21.349Z,67.95
2018-03-07T13:34:49.814Z,67.66
2018-03-07T13:37:18.245Z,67.94
2018-03-07T13:39:46.674Z,67.01
2018-03-07T13:42:15.165Z,66.53
2018-03-07T13:44:43.595Z,66.09
2018-03-07T13:47:12.032Z,66.05
2018-03-07T13:49:40.503Z,64.06
2018-03-07T13:52:08.935Z,63.39
2018-03-07T13:54:37.378Z,62.29
2018-03-07T13:57:05.922Z,62.35
2018-03-07T13:59:34.351Z,60.81
2018-03-07T14:02:02.802Z,60.42
2018-03-07T14:04:31.298Z,59.78
2018-03-07T14:07:00.312Z,59.11
2018-03-07T14:09:28.739Z,58.49
2018-03-07T14:11:57.217Z,58.59
2018-03-07T14:14:25.682Z,57.93
2018-03-07T14:16:54.170Z,57.83
2018-03-07T14:19:22.659Z,58.25
2018-03-07T14:21:51.126Z,58.14
2018-03-07T14:24:19.571Z,57.36
2018-03-07T14:26:48.064Z,57.37
2018-03-07T14:29:16.487Z,56.45
2018-03-07T14:31:44.917Z,56.08
2018-03-07T14:34:13.417Z,55.44
2018-03-07T14:36:41.887Z,55.80
2018-03-07T14:39:10.333Z,55.38
2018-03-07T14:41:38.840Z,55.23
2018-03-07T14:44:07.278Z,55.31
2018-03-07T14:46:35.758Z,54.68
2018-03-07T14:49:04.246Z,54.27
2018-03-07T14:51:32.709Z,53.71
2018-03-07T14:54:01.154Z,54.07
2018-03-07T14:56:29.650Z,54.59
2018-03-07T14:58:58.092Z,55.09
2018-03-07T15:01:26.536Z,55.29
2018-03-07T15:03:55.035Z,54.69
2018-03-07T15:06:23.503Z,54.66
2018-03-07T15:08:51.972Z,55.32
2018-03-07T15:11:20.462Z,54.42
2018-03-07T15:13:48.898Z,53.79
2018-03-07T15:16:17.330Z,53.91
2018-03-07T15:18:45.803Z,54.57
2018-03-07T15:21:14.285Z,54.75
2018-03-07T15:23:42.706Z,54.27
2018-03-07T15:26:11.191Z,55.26
2018-03-07T15:28:39.619Z,55.54
2018-03-07T15:31:08.030Z,55.30
2018-03-07T15:33:36.519Z,55.33
2018-03-07T15:36:04.930Z,55.90
2018-03-07T15:38:33.369Z,56.62
2018-03-07T15:41:01.875Z,56.96
2018-03-07T15:43:30.321Z,57.08
2018-03-07T15:45:58.777Z,57.49
2018-03-07T15:48:27.281Z,57.79
2018-03-07T15:50:55.719Z,58.16
2018-03-07T15:53:24.147Z,58.41
2018-03-07T15:55:52.627Z,58.89
2018-03-07T15:58:21.048Z,59.42
2018-03-07T16:00:49.485Z,59.75
2018-03-07T16:03:17.959Z,59.99
2018-03-07T16:05:46.387Z,60.29
2018-03-07T16:08:14.833Z,60.87
2018-03-07T16:10:43.319Z,60.92
2018-03-07T16:13:11.766Z,61.04
2018-03-07T16:15:40.198Z,61.30
2018-03-07T16:18:08.678Z,61.52
2018-03-07T16:20:37.110Z,61.57
2018-03-07T16:23:05.561Z,61.57
2018-03-07T16:25:34.061Z,61.75
2018-03-07T16:28:02.503Z,61.93
2018-03-07T16:30:30.963Z,62.15
2018-03-07T16:32:59.478Z,62.32
2018-03-07T16:35:27.928Z,62.49
2018-03-07T16:37:56.358Z,62.80
2018-03-07T16:40:24.853Z,62.90
2018-03-07T16:42:53.304Z,63.13
2018-03-07T16:45:21.743Z,63.07
2018-03-07T16:47:50.206Z,63.41
2018-03-07T16:50:18.657Z,63.52
2018-03-07T16:52:47.096Z,63.67
2018-03-07T16:55:15.577Z,63.92
2018-03-07T16:57:44.028Z,64.20
2018-03-07T17:00:12.489Z,64.60
2018-03-07T17:02:40.970Z,64.37
2018-03-07T17:05:09.407Z,64.46
2018-03-07T17:07:37.844Z,64.60
2018-03-07T17:10:06.374Z,65.02
2018-03-07T17:12:34.808Z,66.71
2018-03-07T17:15:03.252Z,65.74
2018-03-07T17:17:31.734Z,65.57
2018-03-07T17:20:00.184Z,65.82
2018-03-07T17:22:28.638Z,65.87
2018-03-07T17:24:57.135Z,66.21
2018-03-07T17:27:25.580Z,66.10
2018-03-07T17:29:54.032Z,66.43
2018-03-07T17:32:22.617Z,66.71
2018-03-07T17:34:51.046Z,66.84
2018-03-07T17:37:19.490Z,67.17
2018-03-07T17:39:48.003Z,67.49
2018-03-07T17:44:58.464Z,67.91
2018-03-07T17:47:26.899Z,68.30
2018-03-07T17:49:55.389Z,68.66
2018-03-07T17:52:23.855Z,68.81
2018-03-07T17:54:52.294Z,68.27
2018-03-07T17:57:20.730Z,68.19
2018-03-07T17:59:49.202Z,68.11
2018-03-07T18:02:17.638Z,67.94
2018-03-07T18:04:46.069Z,68.00
2018-03-07T18:07:14.570Z,67.96
2018-03-07T18:09:42.998Z,67.85
2018-03-07T18:12:11.426Z,70.18
2018-03-07T18:14:39.930Z,69.28
2018-03-07T18:17:08.363Z,69.31
2018-03-07T18:19:36.796Z,68.99
2018-03-07T18:22:05.284Z,68.87
2018-03-07T18:24:33.736Z,69.16
2018-03-07T18:27:02.205Z,69.45
2018-03-07T18:29:30.692Z,69.30
2018-03-07T18:31:59.132Z,69.37
2018-03-07T18:34:27.577Z,69.43
2018-03-07T18:36:56.047Z,69.43
2018-03-07T18:39:24.488Z,69.53
2018-03-07T18:41:52.940Z,69.46
2018-03-07T18:44:21.558Z,69.12
2018-03-07T18:46:49.999Z,69.70
2018-03-07T18:49:18.423Z,69.88
2018-03-07T18:51:46.922Z,70.47
2018-03-07T18:54:15.367Z,70.78
2018-03-07T18:56:43.818Z,70.87
2018-03-07T18:59:12.318Z,70.88
2018-03-07T19:01:40.788Z,71.13
2018-03-07T19:04:09.214Z,71.46
2018-03-07T19:06:37.709Z,71.72
2018-03-07T19:09:06.174Z,71.40
2018-03-07T19:11:34.594Z,71.20
2018-03-07T19:14:03.085Z,71.46
2018-03-07T19:16:31.549Z,71.78
2018-03-07T19:18:59.981Z,71.87
2018-03-07T19:21:28.451Z,72.10
2018-03-07T19:23:56.889Z,72.14
2018-03-07T19:26:25.316Z,71.81
2018-03-07T19:28:53.777Z,72.03
2018-03-07T19:31:22.225Z,72.32
2018-03-07T19:33:50.676Z,72.26
2018-03-07T19:36:19.249Z,72.21
2018-03-07T19:38:47.680Z,72.25
2018-03-07T19:41:16.135Z,72.33
2018-03-07T19:43:44.607Z,72.41
2018-03-07T19:46:13.049Z,72.39
2018-03-07T19:48:41.494Z,72.29
2018-03-07T19:51:09.986Z,72.26
2018-03-07T19:53:38.429Z,72.49
2018-03-07T19:58:58.772Z,72.79
2018-03-07T20:01:27.214Z,72.71
2018-03-07T20:03:55.642Z,72.64
2018-03-07T20:06:24.141Z,72.64
2018-03-07T20:08:52.579Z,73.37
2018-03-07T20:11:21.058Z,72.94
2018-03-07T20:13:49.524Z,74.13
2018-03-07T20:16:17.984Z,73.93
2018-03-07T20:18:46.427Z,75.43
2018-03-07T20:24:06.061Z,76.93
2018-03-07T20:26:34.507Z,76.04
2018-03-07T20:29:02.960Z,76.47
2018-03-07T20:31:31.483Z,76.13
2018-03-07T20:33:59.916Z,76.26
2018-03-07T20:36:28.372Z,76.67
2018-03-07T20:38:56.830Z,76.75
2018-03-07T20:41:25.913Z,76.79
2018-03-07T20:43:54.342Z,76.74
2018-03-07T20:46:22.831Z,77.02
2018-03-07T20:48:51.345Z,76.51
2018-03-07T20:51:19.795Z,76.91
2018-03-07T20:53:48.307Z,76.84
2018-03-07T20:56:16.746Z,77.12
2018-03-07T20:58:45.191Z,77.70
2018-03-07T21:01:13.708Z,77.72
2018-03-07T21:03:42.172Z,78.01
2018-03-07T21:06:10.618Z,78.05
2018-03-07T21:08:39.134Z,77.85
2018-03-07T21:11:07.562Z,78.06
2018-03-07T21:13:36.013Z,78.44
2018-03-07T21:16:04.542Z,79.01
2018-03-07T21:18:32.989Z,79.54
2018-03-07T21:21:01.439Z,80.67
2018-03-07T21:23:29.945Z,80.54
2018-03-07T21:25:58.392Z,80.62
2018-03-07T21:28:26.844Z,80.68
2018-03-07T21:30:55.323Z,80.55
2018-03-07T21:33:23.777Z,80.66
2018-03-07T21:35:52.245Z,80.65
2018-03-07T21:38:20.738Z,80.76
2018-03-07T21:40:49.330Z,80.98
2018-03-07T21:43:17.771Z,81.28
2018-03-07T21:45:46.288Z,81.05
2018-03-07T21:48:14.742Z,81.02
2018-03-07T21:50:43.665Z,81.16
2018-03-07T21:53:12.177Z,81.35
2018-03-07T21:55:40.641Z,81.64
2018-03-07T21:58:09.101Z,81.46
2018-03-07T22:00:37.592Z,81.18
2018-03-07T22:03:06.033Z,81.88
2018-03-07T22:05:34.468Z,81.34
2018-03-07T22:08:02.969Z,81.33
2018-03-07T22:10:31.416Z,81.53
2018-03-07T22:12:59.898Z,81.24
2018-03-07T22:15:28.397Z,81.05
2018-03-07T22:17:56.861Z,81.33
2018-03-07T22:20:25.297Z,80.71
2018-03-07T22:22:53.796Z,80.58
2018-03-07T22:25:22.243Z,81.56
2018-03-07T22:27:50.699Z,82.26
2018-03-07T22:30:19.165Z,82.63
2018-03-07T22:32:47.609Z,81.82
2018-03-07T22:35:16.052Z,82.39
2018-03-07T22:37:44.568Z,82.47
2018-03-07T22:40:13.001Z,82.68
2018-03-07T22:42:41.438Z,83.30
2018-03-07T22:45:09.917Z,84.18
2018-03-07T22:47:38.346Z,82.76
2018-03-07T22:50:06.776Z,82.61
2018-03-07T22:52:35.277Z,82.51
2018-03-07T22:55:03.710Z,83.47
2018-03-07T22:57:32.130Z,83.12
2018-03-07T23:00:00.615Z,82.24
2018-03-07T23:02:29.038Z,82.38
2018-03-07T23:04:57.506Z,82.48
2018-03-07T23:07:26.001Z,82.16
2018-03-07T23:09:54.431Z,82.03
2018-03-07T23:12:22.851Z,81.98
2018-03-07T23:14:51.352Z,81.83
2018-03-07T23:17:19.783Z,82.22
2018-03-07T23:19:48.216Z,81.95
2018-03-07T23:22:16.690Z,81.84
2018-03-07T23:24:45.125Z,81.92
2018-03-07T23:27:13.548Z,81.88
2018-03-07T23:29:42.010Z,81.97
2018-03-07T23:32:10.434Z,82.09
2018-03-07T23:34:38.884Z,100.00
2018-03-07T23:37:07.375Z,100.00
2018-03-07T23:39:35.836Z,61.63
2018-03-07T23:42:04.293Z,82.32
2018-03-07T23:44:32.768Z,81.51
2018-03-07T23:47:01.199Z,81.39
2018-03-07T23:49:29.654Z,100.00
2018-03-07T23:51:58.171Z,100.00
2018-03-07T23:54:26.655Z,100.00
2018-03-07T23:56:55.129Z,100.00
2018-03-07T23:59:23.646Z,100.00
